sensor_id;sensor_type;location;lat;lon;timestamp;P1;durP1;ratioP1;P2;durP2;ratioP2
35909;SDS011;22004;49.120;-0.200;2024-03-25T00:02:04;28.70;;;11.80;;
35909;SDS011;22004;49.120;-0.200;2024-03-25T00:04:29;31.10;;;12.20;;
35909;SDS011;22004;49.120;-0.200;2024-03-25T00:06:55;28.50;;;12.33;;
35909;SDS011;22004;49.120;-0.200;2024-03-25T00:09:22;31.40;;;10.57;;
35909;SDS011;22004;49.120;-0.200;2024-03-25T00:11:47;26.20;;;10.53;;
35909;SDS011;22004;49.120;-0.200;2024-03-25T00:14:12;23.83;;;10.70;;
35909;SDS011;22004;49.120;-0.200;2024-03-25T00:16:38;24.00;;;10.20;;
35909;SDS011;22004;49.120;-0.200;2024-03-25T00:19:03;26.85;;;11.57;;
35909;SDS011;22004;49.120;-0.200;2024-03-25T00:21:28;21.87;;;10.47;;
35909;SDS011;22004;49.120;-0.200;2024-03-25T00:23:54;21.08;;;9.02;;
35909;SDS011;22004;49.120;-0.200;2024-03-25T00:26:22;19.23;;;8.63;;
35909;SDS011;22004;49.120;-0.200;2024-03-25T00:28:47;16.25;;;6.72;;
35909;SDS011;22004;49.120;-0.200;2024-03-25T00:31:13;21.42;;;8.90;;
35909;SDS011;22004;49.120;-0.200;2024-03-25T00:33:38;23.80;;;9.18;;
35909;SDS011;22004;49.120;-0.200;2024-03-25T00:36:03;19.00;;;7.77;;
35909;SDS011;22004;49.120;-0.200;2024-03-25T00:38:29;18.65;;;7.60;;
35909;SDS011;22004;49.120;-0.200;2024-03-25T00:40:54;22.13;;;7.67;;
35909;SDS011;22004;49.120;-0.200;2024-03-25T00:43:19;20.53;;;7.93;;
35909;SDS011;22004;49.120;-0.200;2024-03-25T00:45:45;15.13;;;7.25;;
35909;SDS011;22004;49.120;-0.200;2024-03-25T00:48:10;18.38;;;7.38;;
35909;SDS011;22004;49.120;-0.200;2024-03-25T00:50:36;17.10;;;6.63;;
35909;SDS011;22004;49.120;-0.200;2024-03-25T00:53:02;20.53;;;7.13;;
35909;SDS011;22004;49.120;-0.200;2024-03-25T00:55:27;18.57;;;6.80;;
35909;SDS011;22004;49.120;-0.200;2024-03-25T00:57:52;17.30;;;7.05;;
35909;SDS011;22004;49.120;-0.200;2024-03-25T01:00:17;19.65;;;7.65;;
35909;SDS011;22004;49.120;-0.200;2024-03-25T01:02:43;18.40;;;7.00;;
35909;SDS011;22004;49.120;-0.200;2024-03-25T01:05:08;16.27;;;6.43;;
35909;SDS011;22004;49.120;-0.200;2024-03-25T01:07:34;16.05;;;6.22;;
35909;SDS011;22004;49.120;-0.200;2024-03-25T01:09:59;15.73;;;6.50;;
35909;SDS011;22004;49.120;-0.200;2024-03-25T01:12:25;16.73;;;6.17;;
35909;SDS011;22004;49.120;-0.200;2024-03-25T01:14:50;12.77;;;5.20;;
35909;SDS011;22004;49.120;-0.200;2024-03-25T01:17:16;14.57;;;5.30;;
35909;SDS011;22004;49.120;-0.200;2024-03-25T01:19:41;14.57;;;5.88;;
35909;SDS011;22004;49.120;-0.200;2024-03-25T01:22:06;15.20;;;6.40;;
35909;SDS011;22004;49.120;-0.200;2024-03-25T01:24:32;11.77;;;5.20;;
35909;SDS011;22004;49.120;-0.200;2024-03-25T01:26:57;13.60;;;4.63;;
35909;SDS011;22004;49.120;-0.200;2024-03-25T01:29:22;14.27;;;5.40;;
35909;SDS011;22004;49.120;-0.200;2024-03-25T01:31:47;13.23;;;5.93;;
35909;SDS011;22004;49.120;-0.200;2024-03-25T01:34:13;17.83;;;6.25;;
35909;SDS011;22004;49.120;-0.200;2024-03-25T01:36:38;17.13;;;6.60;;
35909;SDS011;22004;49.120;-0.200;2024-03-25T01:39:04;18.77;;;6.13;;
35909;SDS011;22004;49.120;-0.200;2024-03-25T01:41:30;13.38;;;5.28;;
35909;SDS011;22004;49.120;-0.200;2024-03-25T01:43:55;12.45;;;4.78;;
35909;SDS011;22004;49.120;-0.200;2024-03-25T01:46:20;15.00;;;6.07;;
35909;SDS011;22004;49.120;-0.200;2024-03-25T01:48:46;18.38;;;5.78;;
35909;SDS011;22004;49.120;-0.200;2024-03-25T01:51:13;15.02;;;6.50;;
35909;SDS011;22004;49.120;-0.200;2024-03-25T01:53:39;17.33;;;7.28;;
35909;SDS011;22004;49.120;-0.200;2024-03-25T01:56:05;23.43;;;8.50;;
35909;SDS011;22004;49.120;-0.200;2024-03-25T01:58:30;21.23;;;8.88;;
35909;SDS011;22004;49.120;-0.200;2024-03-25T02:00:56;23.55;;;6.60;;
35909;SDS011;22004;49.120;-0.200;2024-03-25T02:03:24;18.60;;;6.70;;
35909;SDS011;22004;49.120;-0.200;2024-03-25T02:05:58;16.55;;;5.90;;
35909;SDS011;22004;49.120;-0.200;2024-03-25T02:08:25;15.57;;;6.15;;
35909;SDS011;22004;49.120;-0.200;2024-03-25T02:10:50;17.08;;;6.15;;
35909;SDS011;22004;49.120;-0.200;2024-03-25T02:13:16;18.98;;;5.13;;
35909;SDS011;22004;49.120;-0.200;2024-03-25T02:15:41;14.33;;;5.77;;
35909;SDS011;22004;49.120;-0.200;2024-03-25T02:18:07;12.90;;;5.45;;
35909;SDS011;22004;49.120;-0.200;2024-03-25T02:20:32;16.97;;;6.20;;
35909;SDS011;22004;49.120;-0.200;2024-03-25T02:22:57;16.02;;;6.05;;
35909;SDS011;22004;49.120;-0.200;2024-03-25T02:25:23;16.67;;;6.27;;
35909;SDS011;22004;49.120;-0.200;2024-03-25T02:27:48;19.83;;;6.57;;
35909;SDS011;22004;49.120;-0.200;2024-03-25T02:30:14;19.33;;;6.80;;
35909;SDS011;22004;49.120;-0.200;2024-03-25T02:32:39;17.92;;;6.57;;
35909;SDS011;22004;49.120;-0.200;2024-03-25T02:35:07;15.70;;;6.15;;
35909;SDS011;22004;49.120;-0.200;2024-03-25T02:37:32;17.60;;;6.32;;
35909;SDS011;22004;49.120;-0.200;2024-03-25T02:39:58;16.27;;;6.25;;
35909;SDS011;22004;49.120;-0.200;2024-03-25T02:42:24;15.98;;;5.90;;
35909;SDS011;22004;49.120;-0.200;2024-03-25T02:44:50;16.73;;;5.75;;
35909;SDS011;22004;49.120;-0.200;2024-03-25T02:47:16;16.33;;;6.20;;
35909;SDS011;22004;49.120;-0.200;2024-03-25T02:49:42;13.07;;;6.00;;
35909;SDS011;22004;49.120;-0.200;2024-03-25T02:52:08;18.83;;;6.00;;
35909;SDS011;22004;49.120;-0.200;2024-03-25T02:54:33;12.37;;;4.90;;
35909;SDS011;22004;49.120;-0.200;2024-03-25T02:56:58;16.13;;;5.20;;
35909;SDS011;22004;49.120;-0.200;2024-03-25T02:59:23;16.60;;;5.37;;
35909;SDS011;22004;49.120;-0.200;2024-03-25T03:01:49;10.13;;;4.40;;
35909;SDS011;22004;49.120;-0.200;2024-03-25T03:04:14;13.63;;;5.30;;
35909;SDS011;22004;49.120;-0.200;2024-03-25T03:06:39;13.87;;;4.90;;
35909;SDS011;22004;49.120;-0.200;2024-03-25T03:09:04;15.03;;;4.97;;
35909;SDS011;22004;49.120;-0.200;2024-03-25T03:11:30;14.45;;;5.03;;
35909;SDS011;22004;49.120;-0.200;2024-03-25T03:13:55;13.97;;;4.43;;
35909;SDS011;22004;49.120;-0.200;2024-03-25T03:16:20;18.10;;;6.10;;
35909;SDS011;22004;49.120;-0.200;2024-03-25T03:18:46;10.27;;;4.53;;
35909;SDS011;22004;49.120;-0.200;2024-03-25T03:21:11;15.80;;;4.57;;
35909;SDS011;22004;49.120;-0.200;2024-03-25T03:23:36;11.13;;;4.07;;
35909;SDS011;22004;49.120;-0.200;2024-03-25T03:26:01;14.95;;;4.85;;
35909;SDS011;22004;49.120;-0.200;2024-03-25T03:28:27;12.43;;;5.03;;
35909;SDS011;22004;49.120;-0.200;2024-03-25T03:30:53;12.13;;;4.07;;
35909;SDS011;22004;49.120;-0.200;2024-03-25T03:33:18;11.00;;;4.45;;
35909;SDS011;22004;49.120;-0.200;2024-03-25T03:35:43;9.47;;;3.67;;
35909;SDS011;22004;49.120;-0.200;2024-03-25T03:38:09;12.37;;;4.20;;
35909;SDS011;22004;49.120;-0.200;2024-03-25T03:40:34;12.93;;;4.33;;
35909;SDS011;22004;49.120;-0.200;2024-03-25T03:42:59;10.23;;;4.30;;
35909;SDS011;22004;49.120;-0.200;2024-03-25T03:45:24;13.47;;;4.00;;
35909;SDS011;22004;49.120;-0.200;2024-03-25T03:47:50;13.85;;;5.20;;
35909;SDS011;22004;49.120;-0.200;2024-03-25T03:50:15;11.10;;;3.72;;
35909;SDS011;22004;49.120;-0.200;2024-03-25T03:52:40;10.70;;;3.73;;
35909;SDS011;22004;49.120;-0.200;2024-03-25T03:55:05;10.17;;;3.80;;
35909;SDS011;22004;49.120;-0.200;2024-03-25T03:57:31;11.27;;;3.95;;
35909;SDS011;22004;49.120;-0.200;2024-03-25T03:59:57;13.15;;;3.80;;
35909;SDS011;22004;49.120;-0.200;2024-03-25T04:02:22;9.23;;;3.67;;
35909;SDS011;22004;49.120;-0.200;2024-03-25T04:04:48;8.55;;;3.38;;
35909;SDS011;22004;49.120;-0.200;2024-03-25T04:07:13;10.70;;;3.73;;
35909;SDS011;22004;49.120;-0.200;2024-03-25T04:09:39;10.23;;;4.40;;
35909;SDS011;22004;49.120;-0.200;2024-03-25T04:12:04;10.67;;;4.27;;
35909;SDS011;22004;49.120;-0.200;2024-03-25T04:14:30;10.38;;;3.65;;
35909;SDS011;22004;49.120;-0.200;2024-03-25T04:16:56;11.05;;;3.80;;
35909;SDS011;22004;49.120;-0.200;2024-03-25T04:19:24;10.43;;;3.53;;
35909;SDS011;22004;49.120;-0.200;2024-03-25T04:21:49;12.68;;;3.47;;
35909;SDS011;22004;49.120;-0.200;2024-03-25T04:24:14;12.57;;;3.27;;
35909;SDS011;22004;49.120;-0.200;2024-03-25T04:26:40;10.77;;;3.50;;
35909;SDS011;22004;49.120;-0.200;2024-03-25T04:29:05;10.65;;;4.30;;
35909;SDS011;22004;49.120;-0.200;2024-03-25T04:31:31;11.82;;;3.63;;
35909;SDS011;22004;49.120;-0.200;2024-03-25T04:33:56;11.13;;;3.40;;
35909;SDS011;22004;49.120;-0.200;2024-03-25T04:36:21;9.85;;;3.42;;
35909;SDS011;22004;49.120;-0.200;2024-03-25T04:38:47;11.37;;;3.20;;
35909;SDS011;22004;49.120;-0.200;2024-03-25T04:41:12;9.83;;;3.20;;
35909;SDS011;22004;49.120;-0.200;2024-03-25T04:43:37;9.60;;;3.43;;
35909;SDS011;22004;49.120;-0.200;2024-03-25T04:46:02;8.20;;;3.13;;
35909;SDS011;22004;49.120;-0.200;2024-03-25T04:48:28;8.10;;;3.28;;
35909;SDS011;22004;49.120;-0.200;2024-03-25T04:50:53;10.32;;;3.50;;
35909;SDS011;22004;49.120;-0.200;2024-03-25T04:53:18;11.80;;;4.03;;
35909;SDS011;22004;49.120;-0.200;2024-03-25T04:55:44;8.07;;;2.80;;
35909;SDS011;22004;49.120;-0.200;2024-03-25T04:58:09;10.00;;;3.10;;
35909;SDS011;22004;49.120;-0.200;2024-03-25T05:00:34;10.95;;;3.53;;
35909;SDS011;22004;49.120;-0.200;2024-03-25T05:02:59;11.03;;;3.40;;
35909;SDS011;22004;49.120;-0.200;2024-03-25T05:05:25;10.30;;;3.77;;
35909;SDS011;22004;49.120;-0.200;2024-03-25T05:07:50;10.13;;;3.13;;
35909;SDS011;22004;49.120;-0.200;2024-03-25T05:10:15;12.17;;;3.93;;
35909;SDS011;22004;49.120;-0.200;2024-03-25T05:12:40;10.97;;;3.67;;
35909;SDS011;22004;49.120;-0.200;2024-03-25T05:15:05;8.73;;;3.87;;
35909;SDS011;22004;49.120;-0.200;2024-03-25T05:17:31;13.33;;;3.60;;
35909;SDS011;22004;49.120;-0.200;2024-03-25T05:19:56;13.23;;;3.40;;
35909;SDS011;22004;49.120;-0.200;2024-03-25T05:22:21;8.27;;;3.07;;
35909;SDS011;22004;49.120;-0.200;2024-03-25T05:24:46;10.77;;;3.60;;
35909;SDS011;22004;49.120;-0.200;2024-03-25T05:27:12;9.13;;;3.37;;
35909;SDS011;22004;49.120;-0.200;2024-03-25T05:29:37;13.53;;;3.40;;
35909;SDS011;22004;49.120;-0.200;2024-03-25T05:32:02;11.97;;;3.67;;
35909;SDS011;22004;49.120;-0.200;2024-03-25T05:34:28;10.95;;;3.50;;
35909;SDS011;22004;49.120;-0.200;2024-03-25T05:36:53;9.15;;;3.00;;
35909;SDS011;22004;49.120;-0.200;2024-03-25T05:39:19;15.05;;;3.70;;
35909;SDS011;22004;49.120;-0.200;2024-03-25T05:41:45;13.60;;;3.30;;
35909;SDS011;22004;49.120;-0.200;2024-03-25T05:44:10;12.52;;;3.03;;
35909;SDS011;22004;49.120;-0.200;2024-03-25T05:46:35;7.80;;;3.30;;
35909;SDS011;22004;49.120;-0.200;2024-03-25T05:49:01;7.80;;;2.83;;
35909;SDS011;22004;49.120;-0.200;2024-03-25T05:51:26;11.45;;;3.40;;
35909;SDS011;22004;49.120;-0.200;2024-03-25T05:53:51;8.60;;;3.37;;
35909;SDS011;22004;49.120;-0.200;2024-03-25T05:56:17;10.77;;;3.53;;
35909;SDS011;22004;49.120;-0.200;2024-03-25T05:58:42;10.83;;;3.53;;
35909;SDS011;22004;49.120;-0.200;2024-03-25T06:01:07;15.30;;;3.60;;
35909;SDS011;22004;49.120;-0.200;2024-03-25T06:03:32;8.23;;;3.37;;
35909;SDS011;22004;49.120;-0.200;2024-03-25T06:05:58;8.07;;;3.13;;
35909;SDS011;22004;49.120;-0.200;2024-03-25T06:08:23;9.90;;;3.00;;
35909;SDS011;22004;49.120;-0.200;2024-03-25T06:10:51;10.65;;;3.88;;
35909;SDS011;22004;49.120;-0.200;2024-03-25T06:13:17;10.95;;;3.30;;
35909;SDS011;22004;49.120;-0.200;2024-03-25T06:15:42;14.10;;;4.18;;
35909;SDS011;22004;49.120;-0.200;2024-03-25T06:18:07;8.87;;;3.30;;
35909;SDS011;22004;49.120;-0.200;2024-03-25T06:20:33;9.20;;;2.90;;
35909;SDS011;22004;49.120;-0.200;2024-03-25T06:22:58;13.50;;;4.00;;
35909;SDS011;22004;49.120;-0.200;2024-03-25T06:25:23;15.03;;;3.83;;
35909;SDS011;22004;49.120;-0.200;2024-03-25T06:27:49;10.60;;;3.80;;
35909;SDS011;22004;49.120;-0.200;2024-03-25T06:30:14;11.70;;;3.50;;
35909;SDS011;22004;49.120;-0.200;2024-03-25T06:32:58;10.23;;;3.28;;
35909;SDS011;22004;49.120;-0.200;2024-03-25T06:35:42;15.40;;;3.55;;
35909;SDS011;22004;49.120;-0.200;2024-03-25T06:38:08;10.15;;;3.30;;
35909;SDS011;22004;49.120;-0.200;2024-03-25T06:40:33;9.67;;;3.23;;
35909;SDS011;22004;49.120;-0.200;2024-03-25T06:42:58;10.73;;;3.40;;
35909;SDS011;22004;49.120;-0.200;2024-03-25T06:45:23;19.83;;;5.37;;
35909;SDS011;22004;49.120;-0.200;2024-03-25T06:47:49;12.10;;;4.40;;
35909;SDS011;22004;49.120;-0.200;2024-03-25T06:50:14;22.73;;;6.97;;
35909;SDS011;22004;49.120;-0.200;2024-03-25T06:52:39;14.73;;;5.88;;
35909;SDS011;22004;49.120;-0.200;2024-03-25T06:55:04;10.60;;;4.63;;
35909;SDS011;22004;49.120;-0.200;2024-03-25T06:57:30;13.80;;;4.82;;
35909;SDS011;22004;49.120;-0.200;2024-03-25T06:59:55;13.57;;;4.32;;
35909;SDS011;22004;49.120;-0.200;2024-03-25T07:02:22;19.83;;;6.25;;
35909;SDS011;22004;49.120;-0.200;2024-03-25T07:04:48;20.73;;;5.27;;
35909;SDS011;22004;49.120;-0.200;2024-03-25T07:07:13;10.93;;;4.27;;
35909;SDS011;22004;49.120;-0.200;2024-03-25T07:09:38;14.57;;;4.47;;
35909;SDS011;22004;49.120;-0.200;2024-03-25T07:12:03;14.97;;;4.50;;
35909;SDS011;22004;49.120;-0.200;2024-03-25T07:14:29;14.88;;;3.75;;
35909;SDS011;22004;49.120;-0.200;2024-03-25T07:16:54;13.32;;;3.65;;
35909;SDS011;22004;49.120;-0.200;2024-03-25T07:19:19;17.00;;;3.60;;
35909;SDS011;22004;49.120;-0.200;2024-03-25T07:21:44;10.93;;;3.42;;
35909;SDS011;22004;49.120;-0.200;2024-03-25T07:24:10;14.87;;;4.40;;
35909;SDS011;22004;49.120;-0.200;2024-03-25T07:26:35;12.53;;;3.47;;
35909;SDS011;22004;49.120;-0.200;2024-03-25T07:29:00;11.57;;;3.97;;
35909;SDS011;22004;49.120;-0.200;2024-03-25T07:31:25;11.13;;;3.70;;
35909;SDS011;22004;49.120;-0.200;2024-03-25T07:33:50;12.40;;;4.07;;
35909;SDS011;22004;49.120;-0.200;2024-03-25T07:36:16;12.47;;;3.97;;
35909;SDS011;22004;49.120;-0.200;2024-03-25T18:17:17;7.63;;;2.00;;
35909;SDS011;22004;49.120;-0.200;2024-03-25T18:19:42;9.30;;;2.53;;
35909;SDS011;22004;49.120;-0.200;2024-03-25T18:22:08;8.60;;;2.53;;
35909;SDS011;22004;49.120;-0.200;2024-03-25T18:24:34;5.43;;;2.20;;
35909;SDS011;22004;49.120;-0.200;2024-03-25T18:26:59;9.25;;;2.67;;
35909;SDS011;22004;49.120;-0.200;2024-03-25T18:29:25;9.27;;;2.67;;
35909;SDS011;22004;49.120;-0.200;2024-03-25T18:31:50;9.18;;;2.03;;
35909;SDS011;22004;49.120;-0.200;2024-03-25T18:34:15;4.83;;;2.10;;
35909;SDS011;22004;49.120;-0.200;2024-03-25T18:36:41;10.10;;;2.25;;
35909;SDS011;22004;49.120;-0.200;2024-03-25T18:39:06;7.90;;;2.50;;
35909;SDS011;22004;49.120;-0.200;2024-03-25T18:41:32;8.10;;;2.63;;
35909;SDS011;22004;49.120;-0.200;2024-03-25T18:43:58;7.00;;;2.70;;
35909;SDS011;22004;49.120;-0.200;2024-03-25T18:46:23;6.43;;;2.57;;
35909;SDS011;22004;49.120;-0.200;2024-03-25T18:48:49;7.37;;;2.60;;
35909;SDS011;22004;49.120;-0.200;2024-03-25T18:51:16;10.23;;;2.30;;
35909;SDS011;22004;49.120;-0.200;2024-03-25T18:53:41;7.70;;;2.60;;
35909;SDS011;22004;49.120;-0.200;2024-03-25T18:56:06;9.75;;;2.70;;
35909;SDS011;22004;49.120;-0.200;2024-03-25T18:58:32;6.23;;;2.67;;
35909;SDS011;22004;49.120;-0.200;2024-03-25T19:00:57;7.25;;;2.47;;
35909;SDS011;22004;49.120;-0.200;2024-03-25T19:03:23;7.13;;;2.78;;
35909;SDS011;22004;49.120;-0.200;2024-03-25T19:05:48;8.27;;;2.17;;
35909;SDS011;22004;49.120;-0.200;2024-03-25T19:08:13;7.27;;;2.60;;
35909;SDS011;22004;49.120;-0.200;2024-03-25T19:10:39;7.77;;;2.20;;
35909;SDS011;22004;49.120;-0.200;2024-03-25T19:13:04;5.00;;;2.67;;
35909;SDS011;22004;49.120;-0.200;2024-03-25T19:15:29;6.63;;;3.07;;
35909;SDS011;22004;49.120;-0.200;2024-03-25T19:17:54;8.57;;;3.50;;
35909;SDS011;22004;49.120;-0.200;2024-03-25T19:20:19;8.67;;;3.07;;
35909;SDS011;22004;49.120;-0.200;2024-03-25T19:22:45;8.23;;;2.87;;
35909;SDS011;22004;49.120;-0.200;2024-03-25T19:25:12;5.43;;;2.50;;
35909;SDS011;22004;49.120;-0.200;2024-03-25T19:27:40;9.32;;;2.75;;
35909;SDS011;22004;49.120;-0.200;2024-03-25T19:30:06;8.00;;;3.50;;
35909;SDS011;22004;49.120;-0.200;2024-03-25T19:32:33;5.05;;;2.83;;
35909;SDS011;22004;49.120;-0.200;2024-03-25T19:34:58;5.53;;;2.37;;
35909;SDS011;22004;49.120;-0.200;2024-03-25T19:37:24;10.17;;;3.77;;
35909;SDS011;22004;49.120;-0.200;2024-03-25T19:39:49;6.80;;;2.67;;
35909;SDS011;22004;49.120;-0.200;2024-03-25T19:42:14;7.45;;;3.83;;
35909;SDS011;22004;49.120;-0.200;2024-03-25T19:44:39;7.73;;;3.67;;
35909;SDS011;22004;49.120;-0.200;2024-03-25T19:47:05;9.80;;;3.33;;
35909;SDS011;22004;49.120;-0.200;2024-03-25T19:49:30;8.00;;;3.30;;
35909;SDS011;22004;49.120;-0.200;2024-03-25T19:51:55;7.33;;;3.00;;
35909;SDS011;22004;49.120;-0.200;2024-03-25T19:54:20;11.77;;;4.07;;
35909;SDS011;22004;49.120;-0.200;2024-03-25T19:56:46;7.77;;;3.13;;
35909;SDS011;22004;49.120;-0.200;2024-03-25T19:59:11;7.20;;;2.80;;
35909;SDS011;22004;49.120;-0.200;2024-03-25T20:01:38;6.65;;;3.38;;
35909;SDS011;22004;49.120;-0.200;2024-03-25T20:04:04;6.95;;;3.45;;
35909;SDS011;22004;49.120;-0.200;2024-03-25T20:06:29;11.93;;;3.58;;
35909;SDS011;22004;49.120;-0.200;2024-03-25T20:08:55;9.63;;;2.90;;
35909;SDS011;22004;49.120;-0.200;2024-03-25T20:11:20;5.87;;;3.00;;
35909;SDS011;22004;49.120;-0.200;2024-03-25T20:13:45;6.97;;;3.60;;
35909;SDS011;22004;49.120;-0.200;2024-03-25T20:16:10;6.45;;;3.13;;
35909;SDS011;22004;49.120;-0.200;2024-03-25T20:18:36;6.10;;;3.03;;
35909;SDS011;22004;49.120;-0.200;2024-03-25T20:21:02;7.25;;;2.40;;
35909;SDS011;22004;49.120;-0.200;2024-03-25T20:23:28;7.35;;;2.90;;
35909;SDS011;22004;49.120;-0.200;2024-03-25T20:25:53;7.03;;;2.67;;
35909;SDS011;22004;49.120;-0.200;2024-03-25T20:28:18;10.40;;;2.70;;
35909;SDS011;22004;49.120;-0.200;2024-03-25T20:30:43;8.50;;;2.70;;
35909;SDS011;22004;49.120;-0.200;2024-03-25T20:33:10;9.80;;;3.03;;
35909;SDS011;22004;49.120;-0.200;2024-03-25T20:35:35;8.47;;;3.07;;
35909;SDS011;22004;49.120;-0.200;2024-03-25T20:38:00;8.23;;;3.17;;
35909;SDS011;22004;49.120;-0.200;2024-03-25T20:40:26;9.38;;;3.22;;
35909;SDS011;22004;49.120;-0.200;2024-03-25T20:42:51;6.70;;;2.58;;
35909;SDS011;22004;49.120;-0.200;2024-03-25T20:45:16;8.30;;;2.90;;
35909;SDS011;22004;49.120;-0.200;2024-03-25T20:47:42;5.60;;;2.50;;
35909;SDS011;22004;49.120;-0.200;2024-03-25T20:50:08;8.13;;;2.70;;
35909;SDS011;22004;49.120;-0.200;2024-03-25T20:52:33;6.72;;;2.83;;
35909;SDS011;22004;49.120;-0.200;2024-03-25T20:54:58;10.03;;;4.27;;
35909;SDS011;22004;49.120;-0.200;2024-03-25T20:57:24;13.43;;;5.93;;
35909;SDS011;22004;49.120;-0.200;2024-03-25T20:59:49;8.33;;;4.07;;
35909;SDS011;22004;49.120;-0.200;2024-03-25T21:02:15;13.15;;;5.32;;
35909;SDS011;22004;49.120;-0.200;2024-03-25T21:04:40;12.27;;;4.27;;
35909;SDS011;22004;49.120;-0.200;2024-03-25T21:07:05;9.13;;;3.90;;
35909;SDS011;22004;49.120;-0.200;2024-03-25T21:09:31;8.17;;;2.83;;
35909;SDS011;22004;49.120;-0.200;2024-03-25T21:11:56;7.47;;;3.00;;
35909;SDS011;22004;49.120;-0.200;2024-03-25T21:14:21;10.57;;;2.50;;
35909;SDS011;22004;49.120;-0.200;2024-03-25T21:16:46;9.33;;;2.90;;
35909;SDS011;22004;49.120;-0.200;2024-03-25T21:19:12;10.48;;;2.92;;
35909;SDS011;22004;49.120;-0.200;2024-03-25T21:21:37;8.77;;;3.28;;
35909;SDS011;22004;49.120;-0.200;2024-03-25T21:24:02;7.90;;;3.17;;
35909;SDS011;22004;49.120;-0.200;2024-03-25T21:26:29;5.38;;;2.88;;
35909;SDS011;22004;49.120;-0.200;2024-03-25T21:28:54;7.20;;;3.28;;
35909;SDS011;22004;49.120;-0.200;2024-03-25T21:31:19;9.17;;;3.40;;
35909;SDS011;22004;49.120;-0.200;2024-03-25T21:33:45;8.27;;;2.93;;
35909;SDS011;22004;49.120;-0.200;2024-03-25T21:36:10;5.20;;;2.40;;
35909;SDS011;22004;49.120;-0.200;2024-03-25T21:38:36;8.95;;;2.90;;
35909;SDS011;22004;49.120;-0.200;2024-03-25T21:41:01;6.03;;;2.40;;
35909;SDS011;22004;49.120;-0.200;2024-03-25T21:43:26;6.30;;;3.40;;
35909;SDS011;22004;49.120;-0.200;2024-03-25T21:45:51;9.13;;;2.70;;
35909;SDS011;22004;49.120;-0.200;2024-03-25T21:48:17;6.87;;;2.77;;
35909;SDS011;22004;49.120;-0.200;2024-03-25T21:50:58;7.97;;;3.08;;
35909;SDS011;22004;49.120;-0.200;2024-03-25T21:53:23;9.60;;;3.03;;
35909;SDS011;22004;49.120;-0.200;2024-03-25T21:55:49;6.13;;;2.40;;
35909;SDS011;22004;49.120;-0.200;2024-03-25T21:58:14;7.70;;;2.80;;
35909;SDS011;22004;49.120;-0.200;2024-03-25T22:00:39;6.53;;;3.07;;
35909;SDS011;22004;49.120;-0.200;2024-03-25T22:03:05;5.63;;;2.58;;
35909;SDS011;22004;49.120;-0.200;2024-03-25T22:05:30;7.73;;;2.70;;
35909;SDS011;22004;49.120;-0.200;2024-03-25T22:07:55;7.28;;;2.90;;
35909;SDS011;22004;49.120;-0.200;2024-03-25T22:10:21;6.80;;;2.83;;
35909;SDS011;22004;49.120;-0.200;2024-03-25T22:12:46;12.23;;;3.00;;
35909;SDS011;22004;49.120;-0.200;2024-03-25T22:15:11;6.00;;;3.15;;
35909;SDS011;22004;49.120;-0.200;2024-03-25T22:17:36;9.20;;;3.10;;
